createdAt,value
2019-04-05T00:01:54.017Z,28.93
2019-04-05T00:04:22.497Z,26.70
2019-04-05T00:06:51.013Z,27.60
2019-04-05T00:09:19.481Z,31.73
2019-04-05T00:11:47.951Z,28.80
2019-04-05T00:14:16.449Z,26.37
2019-04-05T00:16:44.913Z,27.10
2019-04-05T00:19:13.380Z,28.37
2019-04-05T00:21:41.875Z,28.87
2019-04-05T00:24:10.344Z,29.60
2019-04-05T00:26:38.813Z,26.53
2019-04-05T00:29:07.330Z,27.13
2019-04-05T00:31:35.792Z,26.67
2019-04-05T00:34:04.261Z,27.77
2019-04-05T00:36:32.836Z,27.70
2019-04-05T00:39:01.307Z,26.77
2019-04-05T00:41:32.824Z,28.30
2019-04-05T00:44:00.002Z,26.90
2019-04-05T00:46:28.744Z,29.90
2019-04-05T00:48:57.196Z,30.07
2019-04-05T00:51:25.715Z,28.80
2019-04-05T00:53:54.182Z,28.43
2019-04-05T00:56:22.795Z,29.20
2019-04-05T00:58:51.297Z,27.67
2019-04-05T01:01:19.764Z,31.80
2019-04-05T01:03:48.251Z,29.00
2019-04-05T01:06:16.749Z,29.00
2019-04-05T01:08:45.212Z,29.90
2019-04-05T01:11:13.744Z,31.20
2019-04-05T01:13:42.324Z,29.10
2019-04-05T01:16:10.802Z,29.87
2019-04-05T01:18:39.296Z,29.27
2019-04-05T01:21:09.703Z,28.50
2019-04-05T01:23:38.440Z,29.83
2019-04-05T01:26:06.918Z,31.50
2019-04-05T01:28:35.413Z,28.47
2019-04-05T01:31:03.955Z,29.40
2019-04-05T01:33:32.433Z,30.53
2019-04-05T01:36:00.944Z,29.10
2019-04-05T01:38:29.570Z,28.13
2019-04-05T01:40:58.112Z,28.20
2019-04-05T01:43:26.696Z,29.07
2019-04-05T01:45:56.253Z,29.13
2019-04-05T01:48:24.910Z,29.90
2019-04-05T01:50:53.498Z,30.27
2019-04-05T01:53:21.980Z,29.43
2019-04-05T01:55:50.454Z,28.37
2019-04-05T01:58:18.957Z,29.20
2019-04-05T02:00:47.500Z,32.20
2019-04-05T02:03:16.033Z,29.77
2019-04-05T02:05:44.538Z,30.77
2019-04-05T02:08:13.086Z,31.53
2019-04-05T02:10:41.624Z,29.83
2019-04-05T02:13:10.365Z,29.20
2019-04-05T02:15:38.995Z,31.47
2019-04-05T02:18:07.530Z,29.70
2019-04-05T02:20:36.033Z,29.83
2019-04-05T02:23:04.577Z,28.63
2019-04-05T02:25:33.031Z,30.77
2019-04-05T02:28:01.556Z,32.20
2019-04-05T02:30:30.030Z,31.43
2019-04-05T02:32:58.571Z,30.57
2019-04-05T02:35:27.150Z,29.67
2019-04-05T02:37:55.674Z,31.20
2019-04-05T02:40:26.456Z,31.33
2019-04-05T02:42:56.003Z,31.80
2019-04-05T02:45:25.048Z,27.57
2019-04-05T02:47:55.530Z,29.30
2019-04-05T02:50:27.271Z,29.80
2019-04-05T02:52:58.766Z,30.50
2019-04-05T02:55:28.046Z,29.60
2019-04-05T02:57:57.914Z,30.30
2019-04-05T03:00:26.560Z,31.03
2019-04-05T03:02:55.528Z,32.07
2019-04-05T03:05:24.011Z,33.47
2019-04-05T03:07:52.841Z,34.60
2019-04-05T03:10:51.674Z,28.60
2019-04-05T03:13:20.777Z,32.67
2019-04-05T03:15:49.311Z,32.03
2019-04-05T03:18:17.907Z,30.50
2019-04-05T03:20:46.567Z,31.73
2019-04-05T03:23:15.117Z,32.20
2019-04-05T03:25:43.903Z,31.47
2019-04-05T03:28:12.444Z,32.87
2019-04-05T03:30:41.396Z,33.10
2019-04-05T03:33:09.900Z,32.77
2019-04-05T03:35:38.437Z,32.57
2019-04-05T03:38:07.676Z,31.83
2019-04-05T03:40:36.346Z,34.20
2019-04-05T03:43:04.897Z,31.63
2019-04-05T03:45:33.375Z,33.90
2019-04-05T03:48:02.341Z,35.10
2019-04-05T03:50:31.049Z,33.53
2019-04-05T03:53:00.156Z,34.07
2019-04-05T03:55:28.728Z,34.90
2019-04-05T03:57:57.208Z,33.00
2019-04-05T04:00:25.704Z,33.83
2019-04-05T04:02:54.314Z,33.53
2019-04-05T04:05:22.797Z,33.50
2019-04-05T04:07:51.566Z,33.03
2019-04-05T04:10:20.300Z,31.97
2019-04-05T04:12:48.787Z,32.47
2019-04-05T04:15:17.324Z,32.60
2019-04-05T04:17:46.321Z,35.23
2019-04-05T04:20:36.049Z,34.10
2019-04-05T04:23:05.885Z,30.90
2019-04-05T04:25:34.612Z,33.73
2019-04-05T04:28:03.157Z,34.63
2019-04-05T04:30:32.590Z,33.70
2019-04-05T04:33:01.640Z,33.73
2019-04-05T04:35:30.115Z,30.50
2019-04-05T04:37:58.638Z,37.00
2019-04-05T04:40:27.178Z,34.00
2019-04-05T04:42:56.311Z,32.80
2019-04-05T04:45:25.556Z,36.00
2019-04-05T04:47:54.095Z,33.67
2019-04-05T04:50:23.120Z,33.87
2019-04-05T04:52:52.243Z,34.23
2019-04-05T04:55:20.793Z,34.73
2019-04-05T04:57:49.336Z,38.27
2019-04-05T05:00:18.096Z,35.50
2019-04-05T05:02:46.821Z,32.60
2019-04-05T05:05:15.461Z,33.50
2019-04-05T05:07:43.972Z,34.07
2019-04-05T05:10:12.503Z,35.43
2019-04-05T05:12:41.349Z,34.43
2019-04-05T05:15:10.783Z,34.30
2019-04-05T05:17:39.317Z,34.00
2019-04-05T05:20:08.053Z,35.20
2019-04-05T05:22:37.118Z,31.47
2019-04-05T05:25:07.060Z,34.43
2019-04-05T05:27:35.540Z,34.07
2019-04-05T05:30:06.150Z,32.60
2019-04-05T05:32:35.330Z,33.17
2019-04-05T05:35:04.944Z,33.73
2019-04-05T05:37:33.508Z,33.73
2019-04-05T05:40:02.055Z,35.07
2019-04-05T05:42:30.522Z,35.77
2019-04-05T05:44:59.015Z,35.20
2019-04-05T05:47:27.492Z,36.90
2019-04-05T05:49:55.969Z,36.27
2019-04-05T05:52:24.932Z,34.93
2019-04-05T05:54:54.436Z,36.00
2019-04-05T05:57:22.902Z,36.33
2019-04-05T05:59:51.445Z,35.20
2019-04-05T06:02:19.984Z,35.00
2019-04-05T06:04:48.467Z,35.10
2019-04-05T06:07:19.963Z,35.53
2019-04-05T06:09:47.778Z,37.10
2019-04-05T06:12:16.419Z,33.57
2019-04-05T06:14:44.928Z,35.20
2019-04-05T06:17:13.389Z,36.73
2019-04-05T06:19:41.864Z,36.43
2019-04-05T06:22:10.362Z,35.33
2019-04-05T06:24:38.847Z,36.17
2019-04-05T06:27:07.302Z,32.23
2019-04-05T06:29:35.826Z,34.20
2019-04-05T06:32:04.368Z,35.37
2019-04-05T06:34:32.847Z,36.47
2019-04-05T06:37:01.346Z,35.30
2019-04-05T06:39:29.847Z,35.10
2019-04-05T06:41:58.314Z,36.00
2019-04-05T06:44:28.143Z,35.33
2019-04-05T06:46:56.781Z,37.17
2019-04-05T06:49:25.257Z,34.87
2019-04-05T06:51:53.796Z,35.97
2019-04-05T06:54:22.290Z,34.83
2019-04-05T06:56:50.894Z,34.57
2019-04-05T06:59:19.489Z,34.57
2019-04-05T07:01:48.073Z,34.47
2019-04-05T07:04:16.621Z,33.20
2019-04-05T07:06:45.135Z,33.17
2019-04-05T07:09:13.622Z,35.07
2019-04-05T07:11:42.099Z,34.47
2019-04-05T07:14:10.682Z,33.47
2019-04-05T07:16:39.161Z,33.37
2019-04-05T07:19:07.639Z,34.17
2019-04-05T07:21:36.177Z,34.07
2019-04-05T07:24:04.735Z,33.37
2019-04-05T07:26:33.223Z,33.57
2019-04-05T07:29:01.726Z,35.50
2019-04-05T07:31:30.208Z,34.63
2019-04-05T07:33:58.747Z,33.07
2019-04-05T07:36:27.254Z,34.10
2019-04-05T07:38:55.736Z,33.00
2019-04-05T07:41:24.230Z,35.57
2019-04-05T07:43:52.738Z,33.43
2019-04-05T07:46:21.215Z,34.80
2019-04-05T07:48:49.690Z,31.87
2019-04-05T07:51:18.214Z,30.77
2019-04-05T07:53:46.705Z,31.17
2019-04-05T07:56:15.172Z,33.77
2019-04-05T07:58:44.003Z,32.43
2019-04-05T08:01:12.483Z,32.40
2019-04-05T08:03:40.961Z,32.80
2019-04-05T08:06:09.506Z,33.27
2019-04-05T08:08:43.838Z,32.57
2019-04-05T08:11:12.378Z,35.00
2019-04-05T08:13:42.468Z,36.33
2019-04-05T08:16:13.165Z,34.93
2019-04-05T08:18:41.817Z,33.87
2019-04-05T08:21:10.327Z,38.17
2019-04-05T08:23:38.809Z,35.17
2019-04-05T08:26:07.419Z,36.17
2019-04-05T08:28:35.935Z,36.90
2019-04-05T08:31:04.406Z,36.70
2019-04-05T08:33:32.890Z,38.27
2019-04-05T08:36:01.407Z,36.13
2019-04-05T08:38:29.875Z,36.00
2019-04-05T08:40:58.378Z,33.03
2019-04-05T08:43:26.898Z,36.03
2019-04-05T08:45:55.375Z,35.97
2019-04-05T08:48:23.858Z,36.90
2019-04-05T08:50:52.355Z,36.83
2019-04-05T08:53:20.817Z,36.93
2019-04-05T08:55:49.284Z,35.97
2019-04-05T08:58:17.811Z,36.47
2019-04-05T09:00:47.299Z,34.00
2019-04-05T09:03:15.781Z,33.50
2019-04-05T09:05:44.430Z,34.70
2019-04-05T09:08:12.899Z,35.63
2019-04-05T09:10:41.379Z,33.63
2019-04-05T09:13:09.890Z,34.67
2019-04-05T09:15:38.370Z,32.40
2019-04-05T09:18:06.847Z,32.30
2019-04-05T09:20:35.368Z,32.20
2019-04-05T09:23:03.825Z,35.23
2019-04-05T09:25:32.292Z,33.17
2019-04-05T09:28:00.901Z,32.83
2019-04-05T09:30:29.324Z,32.90
2019-04-05T09:32:57.795Z,35.07
2019-04-05T09:35:26.287Z,31.33
2019-04-05T09:37:54.772Z,34.27
2019-04-05T09:40:23.246Z,33.30
2019-04-05T09:42:51.771Z,32.83
2019-04-05T09:45:20.242Z,34.30
2019-04-05T09:47:48.710Z,34.13
2019-04-05T09:50:17.406Z,34.83
2019-04-05T09:52:47.672Z,34.60
2019-04-05T09:55:16.145Z,36.53
2019-04-05T09:57:44.649Z,37.63
2019-04-05T10:00:17.858Z,34.23
2019-04-05T10:02:47.048Z,36.17
2019-04-05T10:05:15.540Z,32.47
2019-04-05T10:07:54.096Z,34.90
2019-04-05T10:10:14.276Z,37.30
2019-04-05T10:12:42.787Z,37.37
2019-04-05T10:15:11.443Z,35.60
2019-04-05T10:17:39.898Z,34.73
2019-04-05T10:20:08.467Z,35.00
2019-04-05T10:22:36.939Z,36.40
2019-04-05T10:25:07.008Z,33.17
2019-04-05T10:27:35.524Z,37.13
2019-04-05T10:30:09.670Z,37.13
2019-04-05T10:32:38.157Z,33.53
2019-04-05T10:35:07.223Z,33.83
2019-04-05T10:37:35.693Z,33.90
2019-04-05T10:40:05.763Z,32.70
2019-04-05T10:42:36.499Z,34.57
2019-04-05T10:45:09.684Z,34.30
2019-04-05T10:47:38.157Z,33.87
2019-04-05T10:50:09.061Z,34.23
2019-04-05T10:52:37.608Z,35.47
2019-04-05T10:55:07.219Z,35.80
2019-04-05T10:57:35.733Z,33.43
2019-04-05T11:00:06.846Z,33.03
2019-04-05T11:02:35.392Z,32.30
2019-04-05T11:05:04.109Z,33.37
2019-04-05T11:07:34.968Z,33.90
2019-04-05T11:10:02.937Z,33.87
2019-04-05T11:12:31.446Z,37.20
2019-04-05T11:14:59.909Z,35.70
2019-04-05T11:17:28.375Z,34.13
2019-04-05T11:19:56.870Z,34.17
2019-04-05T11:22:25.336Z,30.43
2019-04-05T11:24:53.812Z,31.60
2019-04-05T11:27:22.346Z,31.27
2019-04-05T11:29:50.831Z,32.80
2019-04-05T11:32:19.439Z,32.43
2019-04-05T11:34:48.012Z,29.60
2019-04-05T11:37:16.881Z,31.60
2019-04-05T11:39:48.565Z,28.33
2019-04-05T11:42:17.779Z,29.97
2019-04-05T11:44:47.323Z,29.80
2019-04-05T11:47:19.028Z,28.50
2019-04-05T11:49:46.085Z,27.90
2019-04-05T11:52:14.569Z,24.60
2019-04-05T11:54:43.831Z,23.73
2019-04-05T11:57:15.950Z,24.53
2019-04-05T11:59:44.421Z,25.80
2019-04-05T12:02:16.956Z,27.57
2019-04-05T12:04:45.477Z,26.53
2019-04-05T12:07:14.254Z,25.30
2019-04-05T12:09:42.729Z,26.43
2019-04-05T12:12:11.309Z,25.77
2019-04-05T12:14:39.847Z,26.03
2019-04-05T12:17:09.687Z,27.10
2019-04-05T12:19:38.400Z,28.60
2019-04-05T12:22:09.094Z,27.67
2019-04-05T12:24:37.543Z,26.73
2019-04-05T12:27:06.044Z,26.53
2019-04-05T12:29:34.516Z,26.57
2019-04-05T12:32:03.053Z,25.17
2019-04-05T12:34:31.626Z,24.33
2019-04-05T12:37:00.087Z,24.90
2019-04-05T12:39:28.548Z,25.80
2019-04-05T12:41:57.067Z,23.80
2019-04-05T12:44:25.527Z,26.10
2019-04-05T12:46:53.994Z,26.10
2019-04-05T12:49:22.500Z,25.90
2019-04-05T12:51:50.986Z,26.93
2019-04-05T12:54:19.430Z,26.80
2019-04-05T12:56:47.929Z,25.77
2019-04-05T12:59:16.405Z,24.70
2019-04-05T13:01:45.657Z,26.73
2019-04-05T13:04:15.143Z,26.87
2019-04-05T13:06:43.603Z,25.60
2019-04-05T13:09:13.317Z,25.63
2019-04-05T13:11:42.003Z,23.17
2019-04-05T13:14:10.656Z,22.87
2019-04-05T13:16:39.127Z,20.80
2019-04-05T13:19:07.643Z,21.43
2019-04-05T13:21:36.110Z,20.20
2019-04-05T13:24:07.054Z,20.67
2019-04-05T13:26:36.767Z,18.93
2019-04-05T13:29:05.130Z,20.30
2019-04-05T13:31:33.600Z,19.17
2019-04-05T13:34:02.096Z,19.60
2019-04-05T13:36:30.575Z,20.50
2019-04-05T13:39:00.358Z,17.53
2019-04-05T13:41:31.267Z,21.50
2019-04-05T13:44:01.641Z,20.43
2019-04-05T13:46:29.531Z,19.97
2019-04-05T13:48:58.024Z,19.17
2019-04-05T13:51:28.032Z,22.27
2019-04-05T13:53:56.690Z,22.10
2019-04-05T13:56:25.278Z,20.07
2019-04-05T13:58:53.755Z,21.10
2019-04-05T14:01:22.227Z,22.93
2019-04-05T14:03:50.788Z,23.67
2019-04-05T14:06:19.290Z,22.03
2019-04-05T14:08:47.764Z,22.40
2019-04-05T14:11:16.396Z,20.30
2019-04-05T14:13:44.855Z,22.30
2019-04-05T14:16:13.395Z,22.50
2019-04-05T14:18:45.188Z,20.07
2019-04-05T14:21:12.201Z,21.50
2019-04-05T14:23:40.670Z,20.40
2019-04-05T14:26:10.076Z,21.60
2019-04-05T14:28:38.541Z,22.40
2019-04-05T14:31:07.011Z,22.67
2019-04-05T14:33:35.525Z,22.37
2019-04-05T14:36:03.995Z,22.40
2019-04-05T14:38:32.468Z,21.90
2019-04-05T14:41:01.055Z,21.77
2019-04-05T14:43:29.522Z,22.70
2019-04-05T14:45:57.988Z,22.23
2019-04-05T14:48:28.021Z,22.20
2019-04-05T14:50:57.918Z,20.87
2019-04-05T14:53:27.027Z,21.27
2019-04-05T14:55:59.059Z,23.40
2019-04-05T14:58:25.772Z,22.73
2019-04-05T15:00:54.255Z,22.90
2019-04-05T15:03:22.844Z,22.00
2019-04-05T15:05:51.326Z,20.63
2019-04-05T15:08:20.673Z,22.17
2019-04-05T15:10:51.350Z,21.73
2019-04-05T15:13:20.486Z,22.67
2019-04-05T15:15:48.956Z,20.10
2019-04-05T15:18:19.601Z,21.00
2019-04-05T15:20:47.655Z,19.33
2019-04-05T15:23:16.128Z,20.03
2019-04-05T15:25:44.664Z,19.50
2019-04-05T15:28:13.140Z,20.10
2019-04-05T15:30:41.610Z,19.27
2019-04-05T15:33:10.115Z,19.57
2019-04-05T15:35:38.584Z,19.60
2019-04-05T15:38:07.055Z,19.47
2019-04-05T15:40:35.559Z,19.57
2019-04-05T15:43:04.021Z,20.87
2019-04-05T15:45:32.490Z,20.87
2019-04-05T15:48:01.004Z,21.20
2019-04-05T15:50:29.502Z,20.90
2019-04-05T15:52:59.730Z,23.47
2019-04-05T15:55:28.207Z,23.30
2019-04-05T15:57:56.669Z,22.17
2019-04-05T16:00:40.066Z,20.17
2019-04-05T16:03:08.521Z,27.73
2019-04-05T16:05:36.995Z,33.00
2019-04-05T16:08:05.575Z,33.07
2019-04-05T16:10:34.052Z,36.60
2019-04-05T16:13:02.543Z,36.07
2019-04-05T16:15:31.180Z,38.00
2019-04-05T16:17:59.653Z,38.03
2019-04-05T16:20:28.196Z,38.50
2019-04-05T16:22:56.706Z,37.87
2019-04-05T16:25:25.189Z,37.70
2019-04-05T16:27:53.671Z,39.57
2019-04-05T16:30:22.194Z,39.50
2019-04-05T16:32:50.666Z,41.40
2019-04-05T16:35:19.212Z,38.20
2019-04-05T16:37:47.762Z,40.77
2019-04-05T16:40:16.765Z,41.10
2019-04-05T16:42:45.233Z,40.20
2019-04-05T16:45:14.271Z,43.30
2019-04-05T16:47:42.741Z,40.00
2019-04-05T16:50:11.768Z,42.83
2019-04-05T16:52:45.091Z,42.40
2019-04-05T16:55:10.607Z,42.60
2019-04-05T16:57:39.161Z,43.03
2019-04-05T17:00:12.727Z,43.17
2019-04-05T17:02:41.275Z,43.87
2019-04-05T17:05:09.878Z,45.77
2019-04-05T17:07:38.391Z,48.70
2019-04-05T17:10:07.493Z,49.73
2019-04-05T17:12:36.079Z,49.07
2019-04-05T17:15:07.283Z,48.07
2019-04-05T17:17:36.231Z,50.80
2019-04-05T17:20:05.941Z,45.83
2019-04-05T17:22:34.453Z,47.37
2019-04-05T17:25:03.213Z,49.30
2019-04-05T17:27:31.683Z,53.57
2019-04-05T17:30:00.190Z,48.63
2019-04-05T17:32:28.677Z,51.50
2019-04-05T17:34:57.139Z,51.70
2019-04-05T17:37:26.829Z,51.53
2019-04-05T17:39:55.616Z,53.03
2019-04-05T17:42:24.083Z,51.00
2019-04-05T17:44:52.634Z,52.17
2019-04-05T17:47:21.100Z,51.87
2019-04-05T17:49:49.575Z,54.07
2019-04-05T17:52:18.094Z,52.07
2019-04-05T17:54:46.562Z,54.80
2019-04-05T17:57:15.172Z,57.62
2019-04-05T17:59:44.207Z,55.97
2019-04-05T18:02:12.687Z,51.97
2019-04-05T18:04:41.228Z,54.80
2019-04-05T18:07:09.893Z,58.67
2019-04-05T18:09:38.381Z,51.77
2019-04-05T18:12:06.859Z,54.27
2019-04-05T18:14:35.419Z,59.87
2019-04-05T18:17:03.984Z,54.27
2019-04-05T18:19:32.772Z,58.50
2019-04-05T18:22:01.292Z,57.30
2019-04-05T18:24:29.774Z,53.63
2019-04-05T18:26:58.309Z,56.57
2019-04-05T18:29:26.798Z,55.10
2019-04-05T18:31:55.282Z,55.30
2019-04-05T18:34:23.760Z,54.80
2019-04-05T18:36:52.279Z,54.00
2019-04-05T18:39:20.751Z,51.80
2019-04-05T18:41:49.225Z,51.93
2019-04-05T18:44:17.736Z,54.30
2019-04-05T18:46:46.214Z,56.83
2019-04-05T18:49:14.682Z,58.10
2019-04-05T18:51:43.255Z,62.90
2019-04-05T18:54:11.732Z,54.40
2019-04-05T18:56:40.227Z,56.60
2019-04-05T18:59:08.754Z,50.03
2019-04-05T19:01:37.246Z,62.80
2019-04-05T19:04:05.835Z,59.53
2019-04-05T19:06:34.444Z,55.07
2019-04-05T19:09:04.565Z,54.30
2019-04-05T19:11:33.050Z,59.47
2019-04-05T19:14:01.758Z,48.60
2019-04-05T19:16:30.213Z,55.13
2019-04-05T19:18:58.736Z,57.70
2019-04-05T19:21:27.673Z,52.50
2019-04-05T19:23:56.137Z,61.77
2019-04-05T19:26:24.616Z,60.73
2019-04-05T19:28:53.133Z,60.40
2019-04-05T19:48:53.289Z,100.80
2019-04-05T19:51:21.810Z,82.43
2019-04-05T19:54:00.675Z,72.87
2019-04-05T19:56:20.475Z,65.83
2019-04-05T19:58:49.033Z,72.60
2019-04-05T20:01:17.474Z,88.03
2019-04-05T20:03:45.951Z,92.40
2019-04-05T20:06:14.504Z,93.73
2019-04-05T20:08:42.989Z,88.73
2019-04-05T20:11:11.478Z,83.73
2019-04-05T20:13:39.992Z,67.63
2019-04-05T20:16:08.485Z,56.80
2019-04-05T20:18:36.953Z,59.60
2019-04-05T20:21:05.470Z,61.37
2019-04-05T20:23:33.948Z,57.47
2019-04-05T20:26:02.462Z,59.70
2019-04-05T20:28:30.928Z,61.47
2019-04-05T20:30:59.415Z,58.23
2019-04-05T20:33:27.885Z,59.83
2019-04-05T20:35:56.403Z,61.07
2019-04-05T20:38:24.879Z,59.07
2019-04-05T20:40:53.360Z,62.40
2019-04-05T20:43:21.882Z,62.17
2019-04-05T20:45:50.359Z,68.40
2019-04-05T20:48:18.832Z,61.67
2019-04-05T20:50:47.341Z,60.33
2019-04-05T20:53:15.824Z,61.67
2019-04-05T20:55:44.301Z,59.77
2019-04-05T20:58:12.811Z,60.10
2019-04-05T21:00:41.288Z,55.83
2019-04-05T21:03:09.745Z,58.37
2019-04-05T21:05:38.261Z,57.47
2019-04-05T21:08:06.731Z,57.30
2019-04-05T21:10:35.200Z,55.07
2019-04-05T21:13:04.151Z,60.27
2019-04-05T21:15:32.702Z,56.07
2019-04-05T21:18:01.166Z,58.07
2019-04-05T21:20:29.690Z,59.13
2019-04-05T21:22:59.245Z,61.67
2019-04-05T21:25:27.722Z,58.93
2019-04-05T21:27:56.214Z,65.50
2019-04-05T21:30:24.681Z,65.30
2019-04-05T21:32:53.177Z,60.93
2019-04-05T21:35:21.696Z,61.47
2019-04-05T21:37:50.241Z,61.90
2019-04-05T21:40:19.008Z,58.97
2019-04-05T21:42:47.529Z,63.00
2019-04-05T21:45:16.002Z,64.17
2019-04-05T21:47:44.482Z,64.10
2019-04-05T21:50:13.053Z,60.40
2019-04-05T21:52:41.523Z,60.27
2019-04-05T21:55:10.064Z,57.20
2019-04-05T21:57:38.590Z,59.03
2019-04-05T22:00:20.375Z,57.40
2019-04-05T22:02:48.746Z,58.10
2019-04-05T22:05:17.236Z,59.50
2019-04-05T22:07:45.707Z,58.00
2019-04-05T22:10:14.287Z,57.73
2019-04-05T22:12:42.773Z,56.60
2019-04-05T22:15:11.249Z,57.57
2019-04-05T22:17:39.772Z,58.20
2019-04-05T22:20:08.417Z,56.10
2019-04-05T22:22:36.890Z,57.97
2019-04-05T22:25:07.021Z,56.97
2019-04-05T22:27:35.485Z,58.30
2019-04-05T22:30:05.807Z,62.70
2019-04-05T22:32:34.331Z,57.87
2019-04-05T22:35:02.807Z,60.40
2019-04-05T22:37:31.288Z,63.90
2019-04-05T22:39:59.793Z,60.97
2019-04-05T22:42:28.276Z,63.27
2019-04-05T22:44:56.744Z,62.87
2019-04-05T22:47:25.241Z,62.20
2019-04-05T22:49:53.715Z,61.83
2019-04-05T22:52:22.185Z,59.80
2019-04-05T22:54:50.691Z,62.80
2019-04-05T22:57:19.175Z,64.33
2019-04-05T22:59:47.647Z,68.57
2019-04-05T23:02:16.148Z,64.00
2019-04-05T23:04:44.617Z,66.03
2019-04-05T23:07:13.167Z,64.90
2019-04-05T23:09:41.735Z,66.83
2019-04-05T23:12:10.221Z,63.37
2019-04-05T23:14:38.822Z,58.40
2019-04-05T23:17:07.355Z,66.57
2019-04-05T23:19:35.856Z,61.70
2019-04-05T23:22:04.395Z,58.87
2019-04-05T23:24:32.985Z,58.80
2019-04-05T23:27:02.471Z,62.07
2019-04-05T23:29:30.956Z,60.13
2019-04-05T23:31:59.472Z,61.60
2019-04-05T23:34:27.949Z,58.10
2019-04-05T23:36:56.408Z,58.40
2019-04-05T23:39:24.922Z,55.70
2019-04-05T23:41:53.372Z,56.07
2019-04-05T23:44:21.831Z,57.40
2019-04-05T23:46:52.609Z,56.80
2019-04-05T23:49:20.535Z,56.90
2019-04-05T23:51:49.016Z,53.93
2019-04-05T23:54:17.520Z,56.17
2019-04-05T23:56:45.986Z,54.57
2019-04-05T23:59:14.611Z,56.00
